Time;durP1;ratioP1;P1;durP2;ratioP2;P2;SDS_P1;SDS_P2;PMS_P1;PMS_P2;Temp;Humidity;BMP_temperature;BMP_pressure;BME280_temperature;BME280_humidity;BME280_pressure;Samples;Min_cycle;Max_cycle;Signal;HPM_P1;HPM_P2
2021/10/11 00:02:32;;;;;;;12.07;8.63;;;;;;;9.46;65.89;100185.53;4975596;29;20215;-80
2021/10/11 00:05:19;;;;;;;11.83;9.23;;;;;;;9.50;66.17;100198.31;4982380;23;20259;-80
2021/10/11 00:08:16;;;;;;;12.73;9.50;;;;;;;9.54;66.29;100193.38;4974987;29;20533;-80
2021/10/11 00:10:51;;;;;;;14.90;9.67;;;;;;;9.41;65.84;100174.59;4956157;29;20197;-80
2021/10/11 00:13:47;;;;;;;11.57;8.67;;;;;;;9.47;65.92;100192.53;4962487;23;20243;-80
2021/10/11 00:16:18;;;;;;;10.40;8.77;;;;;;;9.47;66.41;100189.84;4969340;23;20224;-81
2021/10/11 00:19:12;;;;;;;12.60;9.00;;;;;;;9.41;66.19;100186.13;4954614;29;20241;-80
2021/10/11 00:22:06;;;;;;;12.43;8.87;;;;;;;9.40;66.19;100188.97;4973255;29;20243;-80
2021/10/11 00:24:49;;;;;;;13.57;9.13;;;;;;;9.34;66.68;100182.56;4958423;29;20227;-80
2021/10/11 00:27:24;;;;;;;12.53;9.33;;;;;;;9.37;66.28;100182.19;4980305;23;20243;-81
2021/10/11 00:30:39;;;;;;;11.87;9.30;;;;;;;9.31;67.44;100177.63;4957682;29;20220;-80
2021/10/11 00:33:13;;;;;;;11.90;9.20;;;;;;;9.22;67.68;100166.28;5056047;23;20232;-81
2021/10/11 00:35:42;;;;;;;12.13;9.43;;;;;;;9.12;68.65;100154.28;4949268;23;20538;-81
2021/10/11 00:38:16;;;;;;;13.27;9.13;;;;;;;9.11;68.33;100158.78;4952738;29;20247;-80
2021/10/11 00:40:56;;;;;;;11.13;9.27;;;;;;;9.06;68.79;100163.06;4963649;23;20264;-81
2021/10/11 00:43:39;;;;;;;11.63;8.57;;;;;;;9.00;69.50;100170.06;4958211;29;20255;-80
2021/10/11 00:46:45;;;;;;;14.50;9.20;;;;;;;8.95;69.59;100175.16;4985585;23;20228;-79
2021/10/11 00:49:57;;;;;;;10.50;9.37;;;;;;;8.82;71.18;100164.38;4954833;23;20252;-80
2021/10/11 00:52:55;;;;;;;13.53;9.77;;;;;;;8.99;71.56;100167.56;4951336;23;20221;31
2021/10/11 00:55:26;;;;;;;10.53;8.97;;;;;;;8.85;71.39;100164.00;4856165;29;20259;-80
2021/10/11 00:57:59;;;;;;;13.83;9.30;;;;;;;8.74;71.95;100175.22;4857163;29;20232;-80
2021/10/11 01:00:43;;;;;;;10.83;9.10;;;;;;;8.63;72.62;100160.53;4857825;29;20243;-80
2021/10/11 01:03:13;;;;;;;10.33;8.50;;;;;;;8.62;73.97;100168.75;4858257;29;20244;-80
2021/10/11 01:05:51;;;;;;;11.33;9.70;;;;;;;8.60;74.16;100170.78;4859295;29;20229;-79
2021/10/11 01:08:21;;;;;;;15.07;9.83;;;;;;;8.52;74.74;100163.75;4858936;29;20220;-80
2021/10/11 01:10:55;;;;;;;11.70;9.63;;;;;;;8.53;74.97;100169.91;4857322;29;20229;-80
2021/10/11 01:13:37;;;;;;;12.27;8.97;;;;;;;8.55;74.68;100165.19;4844242;29;20213;-80
2021/10/11 01:16:12;;;;;;;13.07;9.90;;;;;;;8.49;75.17;100160.66;4859657;29;20263;-80
2021/10/11 01:18:46;;;;;;;11.23;9.90;;;;;;;8.53;75.26;100162.75;4860724;29;20216;-80
2021/10/11 01:21:21;;;;;;;11.73;9.60;;;;;;;8.53;75.30;100156.56;4923655;23;20228;-80
2021/10/11 01:23:53;;;;;;;10.93;9.60;;;;;;;8.51;75.74;100154.06;4935936;29;20253;-80
2021/10/11 01:26:39;;;;;;;11.93;9.60;;;;;;;8.51;75.58;100156.75;4937584;29;20223;-80
2021/10/11 01:29:16;;;;;;;12.13;9.90;;;;;;;8.50;76.01;100156.94;4921090;29;20190;-80
2021/10/11 01:31:50;;;;;;;12.77;9.30;;;;;;;8.47;76.31;100162.66;4920371;29;20213;-80
2021/10/11 01:34:21;;;;;;;11.70;9.37;;;;;;;8.40;76.77;100155.41;4910313;23;20317;-80
2021/10/11 01:37:14;;;;;;;10.73;9.63;;;;;;;8.44;76.98;100155.06;4937563;23;20231;-81
2021/10/11 01:39:42;;;;;;;13.47;10.40;;;;;;;8.38;77.08;100152.13;4976412;29;20645;-80
2021/10/11 01:45:52;;;;;;;13.13;10.00;;;;;;;8.33;76.87;100124.34;4953150;23;20323;-80
2021/10/11 01:48:35;;;;;;;19.10;10.10;;;;;;;8.24;77.15;100110.28;4973282;29;20234;-80
2021/10/11 01:51:07;;;;;;;11.07;9.47;;;;;;;8.25;77.24;100114.63;4910420;29;20223;-80
2021/10/11 01:53:37;;;;;;;12.93;9.50;;;;;;;8.35;77.15;100112.44;4921203;23;20247;-80
2021/10/11 01:56:16;;;;;;;13.87;10.27;;;;;;;8.37;77.39;100113.09;4919828;23;20241;-80
2021/10/11 01:59:01;;;;;;;14.53;10.23;;;;;;;8.32;77.31;100098.66;4938295;29;20237;-80
2021/10/11 02:02:27;;;;;;;13.87;10.00;;;;;;;8.30;77.72;100100.72;5166906;23;20200;31
2021/10/11 02:05:04;;;;;;;13.53;9.90;;;;;;;8.42;77.68;100114.34;4899007;29;20272;-80
2021/10/11 02:07:37;;;;;;;14.00;9.90;;;;;;;8.36;77.38;100108.78;4986626;23;20236;-80
2021/10/11 02:10:12;;;;;;;13.17;10.37;;;;;;;8.44;76.85;100107.81;5062302;23;20248;-80
2021/10/11 02:13:06;;;;;;;11.20;9.70;;;;;;;8.43;77.16;100102.66;4982037;23;21387;-80
2021/10/11 02:16:44;;;;;;;11.13;9.50;;;;;;;8.57;77.47;100125.78;4975657;29;20248;-79
2021/10/11 02:19:31;;;;;;;12.97;9.90;;;;;;;8.60;77.34;100120.03;4973869;29;20228;-79
2021/10/11 02:22:17;;;;;;;11.97;10.10;;;;;;;8.63;76.77;100114.31;4976580;29;20229;-81
2021/10/11 02:24:50;;;;;;;12.90;10.00;;;;;;;8.61;76.76;100119.84;4941153;29;20265;-80
2021/10/11 02:27:22;;;;;;;13.90;10.33;;;;;;;8.61;76.97;100119.84;4953758;29;20319;-80
2021/10/11 02:30:05;;;;;;;12.13;10.47;;;;;;;8.66;77.44;100119.25;4938378;23;20226;-80
2021/10/11 02:32:34;;;;;;;12.30;10.30;;;;;;;8.68;77.01;100117.19;4918462;29;20197;-80
2021/10/11 02:35:09;;;;;;;12.57;9.70;;;;;;;8.69;77.38;100117.03;4946941;23;20224;-80
2021/10/11 02:37:47;;;;;;;12.80;10.50;;;;;;;8.70;76.84;100109.84;4996211;23;20351;-80
2021/10/11 02:40:17;;;;;;;13.10;10.57;;;;;;;8.66;76.99;100106.75;4976144;23;20237;-80
2021/10/11 02:43:03;;;;;;;13.80;10.27;;;;;;;8.63;77.34;100095.63;4960605;29;20238;-79
2021/10/11 02:45:42;;;;;;;11.33;9.60;;;;;;;8.66;77.34;100100.56;4972450;23;20243;-80
2021/10/11 02:48:14;;;;;;;13.77;10.17;;;;;;;8.57;77.16;100086.53;4973829;28;20296;-80
2021/10/11 02:50:46;;;;;;;11.23;9.97;;;;;;;8.70;77.31;100101.81;4987800;23;22726;-80
2021/10/11 02:53:31;;;;;;;13.73;10.77;;;;;;;8.73;77.18;100098.75;4970965;23;20233;-80
2021/10/11 02:56:19;;;;;;;11.97;10.17;;;;;;;8.74;77.18;100103.06;4977885;23;20246;-79
2021/10/11 02:58:55;;;;;;;11.90;9.70;;;;;;;8.74;76.93;100097.72;4959296;29;20229;-81
2021/10/11 03:01:27;;;;;;;16.43;10.13;;;;;;;8.72;76.58;100097.13;4975138;29;20189;-80
2021/10/11 03:03:58;;;;;;;13.03;9.10;;;;;;;8.68;76.77;100087.81;4973208;29;20236;-80
2021/10/11 03:06:34;;;;;;;13.50;10.40;;;;;;;8.72;76.85;100092.59;4959153;29;20208;-80
2021/10/11 03:09:13;;;;;;;11.77;10.10;;;;;;;8.79;77.09;100098.81;4960586;29;20195;-80
2021/10/11 03:12:07;;;;;;;10.60;9.50;;;;;;;8.76;77.23;100088.50;4979792;23;20264;-80
2021/10/11 03:14:41;;;;;;;13.47;10.53;;;;;;;8.81;77.08;100094.09;4959476;23;20270;-80
2021/10/11 03:17:44;;;;;;;14.47;9.80;;;;;;;8.80;77.41;100092.44;4954971;29;20222;-80
2021/10/11 03:20:20;;;;;;;13.73;10.70;;;;;;;8.86;76.74;100080.16;4950889;29;20256;-80
2021/10/11 03:22:47;;;;;;;13.17;9.53;;;;;;;8.77;76.53;100074.13;4936698;29;20178;-79
2021/10/11 03:25:34;;;;;;;13.23;9.63;;;;;;;8.81;76.92;100086.09;4946637;29;20205;-79
2021/10/11 03:28:06;;;;;;;12.63;9.30;;;;;;;8.82;76.83;100090.38;4954865;29;20252;-80
2021/10/11 03:31:11;;;;;;;11.33;9.63;;;;;;;8.81;76.45;100085.25;4976672;23;20550;-80
2021/10/11 03:33:55;;;;;;;11.27;9.87;;;;;;;8.80;75.17;100087.09;4980798;23;20224;-80
2021/10/11 03:36:42;;;;;;;10.40;8.80;;;;;;;8.79;74.76;100081.94;4957979;29;20265;-80
2021/10/11 03:39:39;;;;;;;10.90;9.57;;;;;;;8.79;74.50;100088.13;4971702;29;20280;-79
2021/10/11 03:42:10;;;;;;;12.20;9.23;;;;;;;8.79;75.11;100089.97;4955437;29;20707;-81
2021/10/11 03:44:56;;;;;;;13.40;9.33;;;;;;;8.79;74.84;100074.75;4971983;29;20228;-81
2021/10/11 03:47:28;;;;;;;12.13;9.40;;;;;;;8.86;74.80;100082.81;4968740;28;20247;-80
2021/10/11 03:50:07;;;;;;;9.87;8.87;;;;;;;8.87;75.13;100080.94;4969184;29;20233;-79
2021/10/11 03:53:06;;;;;;;11.70;8.83;;;;;;;8.88;73.42;100080.75;4978358;23;20242;-80
2021/10/11 03:55:37;;;;;;;12.67;8.97;;;;;;;8.94;73.18;100079.97;4970694;29;20243;-80
2021/10/11 03:58:19;;;;;;;11.53;8.73;;;;;;;8.93;72.96;100090.84;4969981;29;20296;-80
2021/10/11 04:00:55;;;;;;;11.07;8.93;;;;;;;8.95;73.07;100081.63;4971464;29;20212;-80
2021/10/11 04:03:30;;;;;;;11.80;8.83;;;;;;;8.84;73.14;100064.31;4953953;29;20208;-80
2021/10/11 04:06:03;;;;;;;13.30;9.33;;;;;;;8.91;74.19;100072.38;4913693;29;20233;-80
2021/10/11 04:08:35;;;;;;;9.87;8.47;;;;;;;8.92;74.34;100076.66;4973103;23;20252;-80
2021/10/11 04:11:23;;;;;;;10.27;8.63;;;;;;;8.98;74.55;100078.56;4938084;29;20254;-80
2021/10/11 04:13:56;;;;;;;11.73;9.27;;;;;;;8.97;74.68;100076.06;4947083;29;20248;-80
2021/10/11 04:16:25;;;;;;;11.53;9.17;;;;;;;8.99;73.93;100074.88;4950820;29;20213;-80
2021/10/11 04:19:00;;;;;;;12.77;8.73;;;;;;;8.96;73.87;100063.75;4951111;29;20300;-80
2021/10/11 04:21:32;;;;;;;12.90;9.23;;;;;;;8.99;73.11;100068.69;4951267;29;20226;-80
2021/10/11 04:24:10;;;;;;;13.33;9.13;;;;;;;8.90;70.57;100040.50;4932129;29;20245;-80
2021/10/11 04:26:52;;;;;;;13.43;9.23;;;;;;;8.95;68.97;100052.22;4932343;29;20233;-80
2021/10/11 04:29:25;;;;;;;11.40;8.83;;;;;;;8.88;69.48;100019.28;5046607;23;20240;-80
2021/10/11 04:31:55;;;;;;;12.00;8.63;;;;;;;9.07;68.43;100047.97;4932491;29;20233;-80
2021/10/11 04:34:27;;;;;;;14.20;9.70;;;;;;;9.13;67.40;100051.69;4949412;29;20235;-80
2021/10/11 04:37:03;;;;;;;11.77;9.63;;;;;;;9.11;67.34;100051.03;4951567;28;20236;-80
2021/10/11 04:39:30;;;;;;;13.63;9.50;;;;;;;9.04;67.84;100043.03;4951512;29;20209;-80
2021/10/11 04:41:58;;;;;;;12.50;8.60;;;;;;;9.10;67.15;100050.22;4951127;29;20285;-80
2021/10/11 04:44:36;;;;;;;12.97;9.80;;;;;;;9.16;67.17;100051.28;4949806;28;20244;-80
2021/10/11 04:47:03;;;;;;;11.50;9.60;;;;;;;9.13;67.88;100049.00;4957367;23;20230;-80
2021/10/11 04:49:39;;;;;;;11.17;9.30;;;;;;;9.12;67.48;100040.16;4949916;29;20245;-80
2021/10/11 04:52:24;;;;;;;12.00;7.67;;;;;;;9.19;66.84;100045.53;4950544;29;20198;-80
2021/10/11 04:54:54;;;;;;;12.73;9.00;;;;;;;9.23;66.34;100055.63;4948485;29;20232;-80
2021/10/11 04:57:25;;;;;;;10.23;8.17;;;;;;;9.25;65.34;100052.75;4954555;29;20197;-80
2021/10/11 05:00:31;;;;;;;13.00;9.00;;;;;;;9.29;65.06;100052.16;4968902;23;20228;-80
2021/10/11 05:03:01;;;;;;;12.93;8.80;;;;;;;9.26;64.90;100049.06;4983316;23;20266;-80
2021/10/11 05:05:47;;;;;;;11.20;8.80;;;;;;;9.29;64.92;100048.63;4962558;29;20173;-80
2021/10/11 05:08:19;;;;;;;13.73;9.20;;;;;;;9.39;64.46;100062.47;4983886;23;20680;-81
2021/10/11 05:11:06;;;;;;;10.47;8.00;;;;;;;9.48;62.65;100052.41;4969453;23;20221;-80
2021/10/11 05:13:48;;;;;;;13.60;8.70;;;;;;;9.62;61.95;100048.72;4961655;29;20221;-81
2021/10/11 05:16:20;;;;;;;12.23;8.80;;;;;;;9.70;62.02;100059.25;4974449;23;20267;-81
2021/10/11 05:19:40;;;;;;;13.10;8.53;;;;;;;9.67;62.00;100049.78;4946815;23;20224;-81
2021/10/11 05:22:43;;;;;;;11.87;8.30;;;;;;;9.68;62.12;100064.81;4978629;23;20251;-80
2021/10/11 05:25:13;;;;;;;13.37;8.37;;;;;;;9.66;62.38;100055.31;4923646;23;1769558;-80
2021/10/11 05:27:40;;;;;;;10.50;8.07;;;;;;;9.70;62.13;100065.41;4974910;23;20240;-80
2021/10/11 05:30:12;;;;;;;13.87;8.63;;;;;;;9.77;62.07;100069.94;5138575;23;20248;-80
2021/10/11 05:32:50;;;;;;;11.03;8.57;;;;;;;9.79;62.01;100065.22;4969609;23;20168;-80
2021/10/11 05:35:52;;;;;;;13.20;8.53;;;;;;;9.83;61.32;100066.47;4986446;23;20233;-80
2021/10/11 05:38:39;;;;;;;16.00;11.00;;;;;;;9.88;61.50;100066.69;4946930;29;20228;-81
2021/10/11 05:41:33;;;;;;;29.47;20.93;;;;;;;10.05;60.61;100067.91;5068180;23;20229;-80
2021/10/11 05:44:13;;;;;;;27.53;21.67;;;;;;;10.01;61.37;100062.16;4970296;23;20232;-80
2021/10/11 05:46:50;;;;;;;16.60;13.73;;;;;;;10.05;61.75;100075.94;4957868;29;20252;-80
2021/10/11 05:49:22;;;;;;;12.70;9.03;;;;;;;10.17;61.28;100069.00;4967938;23;20252;-81
2021/10/11 05:51:50;;;;;;;15.90;10.60;;;;;;;10.19;61.25;100064.25;4964303;23;20218;-80
2021/10/11 05:54:23;;;;;;;13.60;11.50;;;;;;;10.23;61.58;100080.72;4935524;29;20313;-81
2021/10/11 05:57:14;;;;;;;17.07;15.20;;;;;;;10.24;61.62;100064.47;4956296;29;20205;-80
2021/10/11 05:59:47;;;;;;;13.07;11.07;;;;;;;10.25;61.37;100062.59;4973997;23;20517;-81
2021/10/11 06:02:39;;;;;;;17.60;12.37;;;;;;;10.33;61.06;100073.09;5069086;23;20233;-81
2021/10/11 06:05:11;;;;;;;13.77;11.00;;;;;;;10.40;60.56;100056.00;4972485;23;20232;-81
2021/10/11 06:08:05;;;;;;;12.87;9.33;;;;;;;10.48;60.01;100069.19;4973978;23;20213;-81
2021/10/11 06:10:55;;;;;;;10.73;8.13;;;;;;;10.43;58.96;100047.53;4992047;23;20240;-80
2021/10/11 06:13:30;;;;;;;10.07;8.20;;;;;;;10.68;58.06;100061.13;5147323;23;20243;-81
2021/10/11 06:16:17;;;;;;;11.97;7.67;;;;;;;10.80;56.90;100069.31;5052559;23;20301;-83
2021/10/11 06:19:05;;;;;;;10.53;7.60;;;;;;;11.03;57.01;100086.56;4969995;23;20235;-82
2021/10/11 06:21:55;;;;;;;9.83;8.00;;;;;;;11.00;56.94;100083.50;4965974;29;20179;-81
2021/10/11 06:24:48;;;;;;;11.47;7.97;;;;;;;11.10;56.91;100075.84;5011002;23;20224;-80
2021/10/11 06:27:37;;;;;;;12.33;8.10;;;;;;;11.26;55.84;100078.03;4990913;23;20252;-80
2021/10/11 06:31:02;;;;;;;8.67;7.53;;;;;;;11.36;55.64;100081.06;4978057;28;20201;-82
2021/10/11 06:33:33;;;;;;;9.77;7.43;;;;;;;11.45;55.41;100093.19;5000566;23;20251;31
2021/10/11 06:36:43;;;;;;;8.53;7.73;;;;;;;11.47;55.40;100084.94;4931372;23;20214;-80
2021/10/11 06:39:26;;;;;;;9.83;7.10;;;;;;;11.44;55.56;100074.63;5019803;23;20280;-81
2021/10/11 06:42:17;;;;;;;25.93;14.83;;;;;;;11.67;54.73;100093.69;4965560;23;20264;-81
2021/10/11 06:45:08;;;;;;;15.47;10.20;;;;;;;11.69;54.21;100091.63;4990991;23;20220;-81
2021/10/11 06:48:00;;;;;;;13.10;9.10;;;;;;;11.83;54.38;100093.22;4977963;23;20232;-81
2021/10/11 06:50:38;;;;;;;12.17;7.73;;;;;;;11.80;54.70;100099.00;4970119;23;20215;-80
2021/10/11 06:53:06;;;;;;;10.13;7.50;;;;;;;11.86;54.53;100097.31;4959975;23;20230;-81
2021/10/11 06:55:53;;;;;;;12.07;8.10;;;;;;;11.84;54.25;100092.19;4954308;23;20212;-82
2021/10/11 06:58:43;;;;;;;9.97;7.40;;;;;;;11.66;54.28;100075.16;4987905;23;20221;-81
2021/10/11 07:01:20;;;;;;;11.73;7.43;;;;;;;11.81;53.16;100089.09;4965736;23;20213;-82
2021/10/11 07:03:50;;;;;;;9.87;6.80;;;;;;;11.96;53.13;100099.53;4939752;29;20214;-82
2021/10/11 07:06:20;;;;;;;11.70;7.77;;;;;;;11.70;53.35;100092.47;4957839;23;20225;-81
2021/10/11 07:08:49;;;;;;;12.37;7.67;;;;;;;11.83;53.43;100095.09;4962696;29;20756;-81
2021/10/11 07:11:31;;;;;;;8.83;7.13;;;;;;;11.73;53.05;100082.13;4976403;29;20231;-81
2021/10/11 07:14:09;;;;;;;9.67;7.67;;;;;;;11.78;53.43;100090.38;4990811;23;20223;-81
2021/10/11 07:16:54;;;;;;;10.23;7.27;;;;;;;11.93;53.50;100089.25;4933882;29;20242;-81
2021/10/11 07:19:21;;;;;;;10.47;7.17;;;;;;;11.98;52.69;100094.78;4941089;23;20230;-81
2021/10/11 07:22:16;;;;;;;12.23;7.83;;;;;;;12.04;53.51;100097.41;4942336;23;20223;-82
2021/10/11 07:24:57;;;;;;;11.40;7.87;;;;;;;12.01;52.95;100099.72;4970382;23;20173;-82
2021/10/11 07:27:27;;;;;;;11.03;7.17;;;;;;;12.12;52.77;100091.78;4961429;29;20236;-82
2021/10/11 07:30:01;;;;;;;11.60;7.70;;;;;;;12.28;52.81;100101.97;4984359;23;20255;-81
2021/10/11 07:32:53;;;;;;;9.70;7.60;;;;;;;12.31;52.37;100088.13;4974973;23;20261;-81
2021/10/11 07:35:43;;;;;;;14.50;8.17;;;;;;;12.56;52.20;100088.09;4980140;23;20215;-82
2021/10/11 07:38:13;;;;;;;11.67;7.87;;;;;;;12.67;51.30;100078.47;4965482;23;20263;-83
2021/10/11 07:40:50;;;;;;;11.40;7.90;;;;;;;12.88;50.61;100085.31;5046017;23;20173;-81
2021/10/11 07:43:35;;;;;;;8.63;7.33;;;;;;;12.89;51.01;100087.75;4972935;23;20205;-81
2021/10/11 07:46:03;;;;;;;10.83;8.17;;;;;;;13.03;50.52;100072.28;4959863;28;20216;-82
2021/10/11 07:48:44;;;;;;;10.50;7.60;;;;;;;13.36;50.05;100088.06;4990089;23;20216;-81
2021/10/11 07:51:13;;;;;;;9.93;7.80;;;;;;;13.23;49.63;100084.50;4968062;23;20236;-82
2021/10/11 07:53:51;;;;;;;10.57;7.57;;;;;;;13.13;49.39;100084.22;4952236;23;20229;-83
2021/10/11 07:56:41;;;;;;;10.03;7.60;;;;;;;13.22;49.41;100076.66;4956306;29;20217;-81
2021/10/11 07:59:29;;;;;;;10.00;7.80;;;;;;;13.27;49.25;100068.72;4966127;23;20245;-80
2021/10/11 08:01:57;;;;;;;12.37;8.87;;;;;;;13.19;49.72;100077.13;4963675;23;20233;-82
2021/10/11 08:04:36;;;;;;;9.33;7.97;;;;;;;13.39;49.60;100085.75;4968105;23;20253;-80
2021/10/11 08:07:13;;;;;;;9.77;7.70;;;;;;;13.58;49.33;100065.81;4952406;23;20244;-81
2021/10/11 08:09:44;;;;;;;10.03;8.00;;;;;;;13.51;49.28;100069.66;4958903;23;20229;-80
2021/10/11 08:12:29;;;;;;;9.93;8.63;;;;;;;13.49;49.22;100052.91;4946249;23;20240;31
2021/10/11 08:14:59;;;;;;;12.43;7.80;;;;;;;13.52;47.83;100074.00;4923678;23;20230;-82
2021/10/11 08:17:26;;;;;;;11.20;8.47;;;;;;;13.71;48.34;100072.06;4947825;23;20262;-81
2021/10/11 08:20:00;;;;;;;8.87;7.93;;;;;;;13.70;48.61;100067.75;4924352;29;20177;-82
2021/10/11 08:22:59;;;;;;;10.23;7.53;;;;;;;13.80;48.00;100049.16;4939820;29;20209;-82
2021/10/11 08:25:27;;;;;;;9.60;7.50;;;;;;;13.94;47.87;100051.41;4955141;23;20288;-82
2021/10/11 08:27:57;;;;;;;9.37;8.03;;;;;;;13.80;47.67;100062.63;4968495;23;20264;-80
2021/10/11 08:30:45;;;;;;;9.53;8.50;;;;;;;13.85;47.73;100057.38;5048911;23;20264;-84
2021/10/11 08:33:18;;;;;;;11.67;8.10;;;;;;;13.74;48.46;100058.16;4982492;23;20228;-83
2021/10/11 08:35:46;;;;;;;11.13;7.80;;;;;;;13.76;48.61;100056.88;4964354;28;20212;-81
2021/10/11 08:38:26;;;;;;;8.83;7.50;;;;;;;13.87;47.91;100061.47;4976029;23;20628;-83
2021/10/11 08:41:14;;;;;;;8.97;7.63;;;;;;;13.91;47.62;100062.63;4987972;23;20207;-80
2021/10/11 08:44:16;;;;;;;11.83;7.80;;;;;;;14.00;46.68;100050.47;4988739;23;20246;-81
2021/10/11 08:46:46;;;;;;;10.10;7.27;;;;;;;14.08;46.70;100058.25;4965177;29;20184;-80
2021/10/11 08:49:16;;;;;;;9.50;7.10;;;;;;;14.18;45.43;100052.28;4987992;23;20216;-81
2021/10/11 08:51:49;;;;;;;12.30;7.30;;;;;;;14.35;45.35;100050.53;4972327;23;20176;-81
2021/10/11 08:54:20;;;;;;;9.90;7.27;;;;;;;14.49;45.21;100053.84;4993101;23;20228;-81
2021/10/11 08:57:26;;;;;;;11.43;7.13;;;;;;;14.65;44.58;100055.81;5064043;23;20180;-80
2021/10/11 09:00:22;;;;;;;10.23;7.67;;;;;;;14.75;45.15;100060.63;4979185;23;20226;-80
2021/10/11 09:03:31;;;;;;;8.97;7.57;;;;;;;15.23;44.54;100061.13;4980413;23;20219;-80
2021/10/11 09:06:18;;;;;;;11.63;7.47;;;;;;;15.06;43.71;100046.75;4986016;23;20217;-80
2021/10/11 09:09:20;;;;;;;10.10;7.63;;;;;;;15.04;43.48;100045.31;4956983;23;20221;-81
2021/10/11 09:11:52;;;;;;;11.83;7.30;;;;;;;15.17;43.78;100037.78;4989117;23;20217;-80
2021/10/11 09:14:45;;;;;;;9.23;7.63;;;;;;;15.04;43.34;100029.13;5002033;23;20228;-80
2021/10/11 09:18:00;;;;;;;12.83;7.37;;;;;;;15.06;43.67;100033.25;4970517;23;20233;-80
2021/10/11 09:20:47;;;;;;;10.43;7.70;;;;;;;15.30;44.00;100034.78;4973479;23;20193;-79
2021/10/11 09:23:23;;;;;;;9.93;7.37;;;;;;;15.32;42.99;100027.28;4973184;23;20216;-80
2021/10/11 09:26:35;;;;;;;9.13;7.53;;;;;;;15.32;42.33;100023.75;4973558;23;20276;-80
2021/10/11 09:29:05;;;;;;;9.93;7.67;;;;;;;14.81;43.83;100006.56;4994030;23;20224;-80
2021/10/11 09:32:17;;;;;;;9.77;7.30;;;;;;;14.83;43.67;100011.72;4963034;23;20291;-79
2021/10/11 09:34:55;;;;;;;11.17;7.50;;;;;;;14.61;43.61;100002.59;4972887;23;20208;-79
2021/10/11 09:37:55;;;;;;;8.87;6.77;;;;;;;14.18;44.82;100011.03;4971451;23;20216;-81
2021/10/11 09:40:41;;;;;;;9.30;6.83;;;;;;;13.98;45.29;100000.59;4922410;29;20199;-80
2021/10/11 09:43:30;;;;;;;13.30;7.40;;;;;;;14.00;46.21;100011.94;4923857;29;20211;-81
2021/10/11 09:46:18;;;;;;;11.10;7.10;;;;;;;13.91;46.21;99995.28;4922355;29;20183;-81
2021/10/11 09:49:28;;;;;;;10.40;6.67;;;;;;;14.05;44.74;99995.91;4975062;23;20240;-80
2021/10/11 09:52:15;;;;;;;10.17;7.50;;;;;;;14.21;44.69;99994.38;4980677;23;20213;-80
2021/10/11 09:55:04;;;;;;;8.97;7.00;;;;;;;14.43;44.20;99988.19;4965091;28;20175;-79
2021/10/11 09:58:01;;;;;;;7.53;6.50;;;;;;;14.77;43.06;99991.91;5073036;23;20249;-79
2021/10/11 10:01:19;;;;;;;8.27;6.83;;;;;;;15.36;43.50;99987.13;4997653;23;20235;-78
2021/10/11 10:04:29;;;;;;;10.03;6.80;;;;;;;15.53;42.25;99979.91;4992967;23;20263;-80
2021/10/11 10:07:12;;;;;;;10.37;7.03;;;;;;;16.06;40.68;99989.41;4973003;23;20220;-79
2021/10/11 10:10:29;;;;;;;11.77;7.87;;;;;;;16.75;40.17;99979.09;4953808;23;20229;-79
2021/10/11 10:13:41;;;;;;;8.60;7.20;;;;;;;16.60;39.68;99977.00;4985622;23;20220;-79
2021/10/11 10:16:40;;;;;;;8.60;6.63;;;;;;;16.70;39.70;99963.63;5007314;23;20281;-79
2021/10/11 10:20:21;;;;;;;8.43;6.70;;;;;;;16.59;39.51;99980.78;4993809;23;20218;-79
2021/10/11 10:22:58;;;;;;;7.93;6.43;;;;;;;16.84;39.57;99964.88;4987161;23;20222;-80
2021/10/11 10:25:28;;;;;;;8.57;7.00;;;;;;;16.94;38.69;99967.69;4956364;29;20218;-85
2021/10/11 10:28:11;;;;;;;10.70;7.20;;;;;;;17.05;38.18;99947.78;4942437;29;20631;-88
2021/10/11 10:30:38;;;;;;;8.33;6.70;;;;;;;17.25;39.09;99947.19;4923537;29;20265;-88
2021/10/11 10:33:11;;;;;;;10.33;6.83;;;;;;;17.11;37.87;99952.19;4938234;29;20234;-81
2021/10/11 10:35:44;;;;;;;10.43;6.80;;;;;;;17.06;38.62;99941.31;4925966;29;20506;-83
2021/10/11 10:38:17;;;;;;;8.40;6.63;;;;;;;17.01;39.14;99941.25;4925483;29;20241;-84
2021/10/11 10:40:45;;;;;;;8.83;6.93;;;;;;;16.67;37.82;99943.28;4942170;29;20233;-82
2021/10/11 10:43:33;;;;;;;8.03;6.40;;;;;;;16.35;39.19;99939.59;4935132;29;20325;-81
2021/10/11 10:46:08;;;;;;;9.73;7.10;;;;;;;16.15;39.92;99936.59;4955592;29;20255;-80
2021/10/11 10:48:52;;;;;;;7.97;6.43;;;;;;;16.19;40.34;99943.94;4954481;29;20225;-81
2021/10/11 10:51:20;;;;;;;7.43;6.20;;;;;;;16.08;39.25;99927.84;4953046;29;20239;-83
2021/10/11 10:54:02;;;;;;;9.63;6.37;;;;;;;16.06;38.77;99940.78;4930085;29;20639;-80
2021/10/11 10:56:36;;;;;;;9.03;6.37;;;;;;;15.93;39.01;99923.03;4949011;29;20330;-83
2021/10/11 10:59:03;;;;;;;7.27;5.97;;;;;;;16.04;39.67;99924.00;4942713;29;20672;-88
2021/10/11 11:01:30;;;;;;;7.10;5.93;;;;;;;16.00;39.62;99902.06;4941766;29;20314;-81
2021/10/11 11:03:57;;;;;;;8.10;5.47;;;;;;;16.19;38.73;99925.03;4925515;29;20227;-86
2021/10/11 11:06:31;;;;;;;7.70;5.57;;;;;;;16.09;38.38;99907.88;4959543;29;20238;-80
2021/10/11 11:09:21;;;;;;;7.60;5.77;;;;;;;16.10;38.48;99902.19;4939201;23;20234;-80
2021/10/11 11:11:49;;;;;;;7.43;5.67;;;;;;;16.23;37.92;99911.84;4923865;29;20242;-81
2021/10/11 11:14:16;;;;;;;5.90;5.10;;;;;;;16.22;37.48;99896.69;4926500;29;20317;-83
2021/10/11 11:16:42;;;;;;;5.70;5.07;;;;;;;16.19;38.42;99897.19;4922259;29;20247;-81
2021/10/11 11:19:12;;;;;;;9.90;5.47;;;;;;;16.32;37.51;99898.72;4929356;29;20252;-84
2021/10/11 11:21:39;;;;;;;8.20;5.10;;;;;;;16.19;38.04;99891.78;4933095;29;20613;-81
2021/10/11 11:24:05;;;;;;;7.90;5.30;;;;;;;16.18;37.52;99873.94;4937209;29;20233;-79
2021/10/11 11:26:32;;;;;;;6.57;5.00;;;;;;;16.12;37.16;99874.94;4940855;29;20235;-80
2021/10/11 11:28:59;;;;;;;6.27;5.13;;;;;;;15.98;37.75;99870.94;4935569;29;20203;-81
2021/10/11 11:31:29;;;;;;;6.43;5.17;;;;;;;15.92;38.01;99870.03;4986006;23;20239;-79
2021/10/11 11:33:58;;;;;;;9.00;5.77;;;;;;;16.28;38.65;99876.78;4962198;23;20230;-80
2021/10/11 11:36:30;;;;;;;7.60;5.47;;;;;;;16.25;38.24;99877.25;4927912;29;20246;-81
2021/10/11 11:38:56;;;;;;;5.50;4.60;;;;;;;16.28;37.90;99874.06;4922174;29;20249;-80
2021/10/11 11:44:27;;;;;;;6.27;5.30;;;;;;;16.26;36.87;99866.19;4926538;29;20237;-79
2021/10/11 11:47:06;;;;;;;8.13;5.40;;;;;;;16.12;37.84;99869.53;4907396;29;20243;-81
2021/10/11 11:49:42;;;;;;;8.27;5.63;;;;;;;16.13;37.83;99876.56;4927357;29;20243;-80
2021/10/11 11:52:40;;;;;;;6.37;5.00;;;;;;;16.24;38.11;99840.47;4909782;29;20227;-82
2021/10/11 11:55:09;;;;;;;7.47;5.37;;;;;;;16.07;38.70;99843.25;4934445;23;20233;-83
2021/10/11 11:57:43;;;;;;;6.20;5.50;;;;;;;16.17;39.44;99859.59;4906047;29;20545;-84
2021/10/11 12:00:12;;;;;;;6.60;5.77;;;;;;;16.28;39.40;99864.03;4905321;29;20259;-90
2021/10/11 12:02:40;;;;;;;7.00;5.33;;;;;;;16.41;39.39;99854.75;4920551;29;20234;-88
2021/10/11 12:05:09;;;;;;;7.97;5.50;;;;;;;16.48;38.59;99855.38;4932406;29;20323;-89
2021/10/11 12:07:38;;;;;;;7.17;5.63;;;;;;;16.61;38.57;99856.94;4939935;29;20231;-86
2021/10/11 12:10:06;;;;;;;6.90;5.80;;;;;;;16.65;38.04;99852.63;4936514;29;20224;-88
2021/10/11 12:12:35;;;;;;;8.10;5.70;;;;;;;16.48;38.14;99851.84;4937789;29;20234;-82
2021/10/11 12:15:17;;;;;;;7.13;5.63;;;;;;;16.63;38.64;99861.00;4939284;29;20238;-86
2021/10/11 12:17:44;;;;;;;7.93;5.50;;;;;;;16.58;37.49;99849.31;4932700;29;20233;-88
2021/10/11 12:20:45;;;;;;;5.73;5.17;;;;;;;16.37;37.83;99858.22;4933955;29;20230;-79
2021/10/11 12:23:30;;;;;;;7.53;4.80;;;;;;;16.17;37.96;99847.97;4965115;23;20245;31
2021/10/11 12:26:02;;;;;;;6.57;5.17;;;;;;;16.28;38.31;99853.22;4932403;29;20231;-79
2021/10/11 12:29:28;;;;;;;7.87;5.83;;;;;;;16.10;38.46;99867.06;4899169;29;20238;-79
2021/10/11 12:32:18;;;;;;;8.33;5.77;;;;;;;16.13;38.88;99853.06;4898411;29;20246;-79
2021/10/11 12:35:00;;;;;;;6.73;5.57;;;;;;;16.10;39.74;99855.41;4915201;29;20208;-79
2021/10/11 12:37:46;;;;;;;6.60;5.83;;;;;;;16.17;38.81;99843.38;4910976;23;20240;-79